Terminal Aerodrome Forecast
Issued by NWS

Home | Current Version | Previous Version | Text Only | Print | Product List | Glossary On
Versions: 1 2 3 4 5 6 7 8 9 10 11 12
913
FTAK31 PAJN 280520
TAFAPG
TAF
PAPG 280520Z 2806/2906 VRB04KT 6SM -RA BR SCT004 BKN015 OVC025
     FM281000 VRB04KT 4SM -RA BR OVC015
     FM281600 VRB03KT 6SM -SHRA BR SCT015 OVC025
     FM290000 04004KT P6SM VCSH SCT020 OVC040
      AMD LTD TO CLD VIS AND WIND 2806/2815=

USA.gov is the U.S. government's official web portal to all federal, state and local government web resources and services.